Time;durP1;ratioP1;P1;durP2;ratioP2;P2;SDS_P1;SDS_P2;PMS_P1;PMS_P2;Temp;Humidity;BMP_temperature;BMP_pressure;BME280_temperature;BME280_humidity;BME280_pressure;Samples;Min_cycle;Max_cycle;Signal;HPM_P1;HPM_P2
2023/03/25 00:00:17;;;;;;;2.50;2.40;;;;;;;5.45;100.00;96367.97;4970574;28;20220;-61
2023/03/25 00:02:46;;;;;;;2.70;2.60;;;;;;;5.44;100.00;96374.22;4959417;28;20217;-61
2023/03/25 00:05:16;;;;;;;3.37;3.07;;;;;;;5.38;100.00;96374.91;4982995;28;20200;-59
2023/03/25 00:07:45;;;;;;;2.73;2.57;;;;;;;5.42;100.00;96373.56;4980390;28;20208;-62
2023/03/25 00:10:13;;;;;;;3.03;2.83;;;;;;;5.41;100.00;96370.09;4986982;28;20212;-62
2023/03/25 00:12:41;;;;;;;3.30;3.10;;;;;;;5.43;100.00;96370.75;4984629;28;20200;-62
2023/03/25 00:15:11;;;;;;;3.10;2.90;;;;;;;5.38;100.00;96364.41;4943819;28;20208;-62
2023/03/25 00:17:39;;;;;;;3.10;2.90;;;;;;;5.31;100.00;96366.88;4962472;28;20231;-59
2023/03/25 00:20:09;;;;;;;3.53;3.27;;;;;;;5.24;100.00;96369.34;4986968;28;20326;-60
2023/03/25 00:22:39;;;;;;;3.97;2.73;;;;;;;5.21;100.00;96370.53;4979190;28;20204;-62
2023/03/25 00:25:09;;;;;;;4.63;3.17;;;;;;;5.33;100.00;96371.00;4988155;28;20204;-60
2023/03/25 00:27:37;;;;;;;3.60;3.10;;;;;;;5.33;100.00;96370.16;4983560;28;20314;-62
2023/03/25 00:30:05;;;;;;;3.93;3.63;;;;;;;5.29;100.00;96371.50;4949487;28;21653;-60
2023/03/25 00:32:33;;;;;;;2.97;2.77;;;;;;;5.23;100.00;96359.84;4961351;28;20204;-62
2023/03/25 00:35:01;;;;;;;3.00;2.80;;;;;;;5.26;100.00;96377.88;4961166;28;20214;-61
2023/03/25 00:37:29;;;;;;;3.40;3.10;;;;;;;5.31;100.00;96369.50;4984592;28;20343;-60
2023/03/25 00:39:57;;;;;;;2.83;2.67;;;;;;;5.32;100.00;96363.25;4963372;28;20209;-61
2023/03/25 00:42:25;;;;;;;3.60;3.30;;;;;;;5.25;100.00;96367.56;4990066;28;20212;-62
2023/03/25 00:44:54;;;;;;;3.50;3.20;;;;;;;5.22;100.00;96372.19;4983914;28;20213;-60
2023/03/25 00:47:21;;;;;;;3.40;3.10;;;;;;;5.19;100.00;96366.44;4928144;28;20219;-63
2023/03/25 00:49:50;;;;;;;3.70;3.20;;;;;;;5.26;100.00;96369.19;4987545;28;20224;-61
2023/03/25 00:52:21;;;;;;;3.10;2.90;;;;;;;5.35;100.00;96363.75;4984136;28;20922;-62
2023/03/25 00:54:51;;;;;;;3.70;2.60;;;;;;;5.43;100.00;96359.44;4988181;28;20227;-61
2023/03/25 00:57:21;;;;;;;2.73;2.60;;;;;;;5.49;100.00;96356.97;4987357;28;20232;-62
2023/03/25 00:59:48;;;;;;;2.53;2.30;;;;;;;5.59;100.00;96361.97;4985701;28;20253;-63
2023/03/25 01:02:20;;;;;;;2.50;2.30;;;;;;;5.63;100.00;96362.47;4949844;28;20220;-61
2023/03/25 01:04:49;;;;;;;3.10;2.80;;;;;;;5.69;100.00;96353.06;4964149;28;20224;-63
2023/03/25 01:07:19;;;;;;;2.87;2.67;;;;;;;5.75;100.00;96349.75;4982445;28;20201;-62
2023/03/25 01:09:47;;;;;;;2.70;2.50;;;;;;;5.79;100.00;96345.78;4984525;28;20274;-61
2023/03/25 01:12:15;;;;;;;2.70;2.43;;;;;;;5.81;100.00;96343.78;4987414;28;20205;-61
2023/03/25 01:14:44;;;;;;;2.90;2.70;;;;;;;5.86;100.00;96343.25;4986512;28;20208;-61
2023/03/25 01:17:12;;;;;;;2.60;2.43;;;;;;;5.87;100.00;96337.00;4972591;28;20250;-62
2023/03/25 01:19:40;;;;;;;2.30;2.20;;;;;;;5.91;100.00;96336.47;4929214;28;21003;-62
2023/03/25 01:22:08;;;;;;;3.10;2.83;;;;;;;5.94;100.00;96332.69;4991289;28;20205;-62
2023/03/25 01:24:35;;;;;;;1.87;1.83;;;;;;;5.99;100.00;96332.16;4964175;28;20217;-62
2023/03/25 01:27:03;;;;;;;2.87;2.60;;;;;;;5.96;100.00;96322.81;4987549;28;20209;-61
2023/03/25 01:29:31;;;;;;;2.60;2.50;;;;;;;6.00;100.00;96323.28;4981585;28;20236;-62
2023/03/25 01:32:00;;;;;;;2.50;2.37;;;;;;;5.99;100.00;96322.47;4985910;28;20211;-61
2023/03/25 01:34:27;;;;;;;2.90;2.67;;;;;;;6.04;100.00;96319.31;4942764;28;20352;-62
2023/03/25 01:36:55;;;;;;;2.30;2.20;;;;;;;6.11;100.00;96309.75;4983256;28;20211;-61
2023/03/25 01:39:23;;;;;;;2.33;2.23;;;;;;;6.09;100.00;96319.63;4970100;28;20233;-63
2023/03/25 01:41:51;;;;;;;2.70;2.50;;;;;;;6.11;100.00;96301.88;4984708;28;20201;-62
2023/03/25 01:44:51;;;;;;;2.90;2.57;;;;;;;6.12;100.00;96300.03;4990614;28;20223;-61
2023/03/25 01:47:21;;;;;;;2.50;2.40;;;;;;;6.16;100.00;96320.56;4980546;28;20213;-61
2023/03/25 01:49:49;;;;;;;2.23;2.13;;;;;;;6.23;100.00;96310.13;4945712;28;21074;-61
2023/03/25 01:52:20;;;;;;;3.53;2.60;;;;;;;6.27;100.00;96315.84;4988232;28;20213;-60
2023/03/25 01:54:50;;;;;;;2.97;2.73;;;;;;;6.27;100.00;96316.69;4982084;28;20205;-62
2023/03/25 01:57:20;;;;;;;6.57;2.70;;;;;;;6.35;100.00;96303.44;4964226;28;20228;-63
2023/03/25 01:59:49;;;;;;;2.93;2.73;;;;;;;6.34;100.00;96308.88;4984391;28;20926;-62
2023/03/25 02:02:17;;;;;;;2.60;2.40;;;;;;;6.30;100.00;96302.34;4982433;28;20822;-61
2023/03/25 02:04:57;;;;;;;2.43;2.23;;;;;;;6.29;100.00;96305.97;4946748;28;20228;-63
2023/03/25 02:07:29;;;;;;;3.57;2.67;;;;;;;6.22;100.00;96306.69;4973000;28;20503;-61
2023/03/25 02:09:59;;;;;;;2.60;2.40;;;;;;;6.21;100.00;96298.97;4981120;28;20211;-63
2023/03/25 02:12:27;;;;;;;2.50;2.30;;;;;;;6.20;100.00;96302.59;4964599;28;20216;-62
2023/03/25 02:14:54;;;;;;;2.60;2.40;;;;;;;6.18;100.00;96294.06;4986542;28;20201;-62
2023/03/25 02:17:28;;;;;;;2.60;2.50;;;;;;;6.26;100.00;96295.81;4984512;28;20227;-64
2023/03/25 02:20:23;;;;;;;2.87;2.10;;;;;;;6.25;100.00;96292.38;4948934;28;20398;-62
2023/03/25 02:23:12;;;;;;;3.83;2.40;;;;;;;6.21;100.00;96297.16;4981019;28;21057;-59
2023/03/25 02:26:04;;;;;;;2.77;2.23;;;;;;;6.14;100.00;96292.78;4984480;28;20205;-60
2023/03/25 02:28:35;;;;;;;4.17;2.37;;;;;;;6.09;100.00;96293.34;4963222;28;21290;-61
2023/03/25 02:31:24;;;;;;;4.47;2.00;;;;;;;6.14;100.00;96292.78;4985648;28;20208;-60
2023/03/25 02:34:13;;;;;;;2.30;2.20;;;;;;;6.15;100.00;96308.41;4984046;28;20212;-60
2023/03/25 02:37:15;;;;;;;2.13;1.93;;;;;;;6.17;100.00;96297.69;4937143;28;20208;-60
2023/03/25 02:39:46;;;;;;;4.03;2.37;;;;;;;6.25;100.00;96292.38;4981852;28;21246;-61
2023/03/25 02:42:16;;;;;;;2.00;1.90;;;;;;;6.23;100.00;96289.91;4978178;28;20213;-61
2023/03/25 02:44:49;;;;;;;3.10;2.07;;;;;;;6.23;100.00;96295.16;4976718;28;20207;-60
2023/03/25 02:47:18;;;;;;;2.33;2.13;;;;;;;6.29;100.00;96290.19;4984705;28;20216;-60
2023/03/25 02:49:49;;;;;;;2.17;2.07;;;;;;;6.20;100.00;96292.91;4982217;28;20813;-59
2023/03/25 02:52:20;;;;;;;2.83;2.73;;;;;;;6.04;100.00;96290.41;4942241;28;20976;-61
2023/03/25 02:54:50;;;;;;;2.20;2.10;;;;;;;6.05;100.00;96294.66;4982242;28;20211;-60
2023/03/25 02:57:20;;;;;;;3.03;2.73;;;;;;;5.97;100.00;96282.38;4974045;28;20225;-61
2023/03/25 02:59:48;;;;;;;1.93;1.90;;;;;;;5.95;100.00;96279.13;4980907;28;20394;-59
2023/03/25 03:02:18;;;;;;;3.20;2.30;;;;;;;5.93;100.00;96274.03;4980039;28;20755;-60
2023/03/25 03:04:47;;;;;;;3.17;2.70;;;;;;;5.88;100.00;96270.31;4986820;28;20296;-60
2023/03/25 03:07:22;;;;;;;2.67;2.47;;;;;;;5.91;100.00;96272.59;4947432;28;20236;-61
2023/03/25 03:09:57;;;;;;;2.40;2.27;;;;;;;5.89;100.00;96267.47;4983586;28;20213;-58
2023/03/25 03:12:36;;;;;;;2.50;2.30;;;;;;;5.93;100.00;96260.88;4980562;28;20250;-61
2023/03/25 03:15:12;;;;;;;3.00;2.80;;;;;;;5.98;100.00;96272.66;4963538;28;20200;-59
2023/03/25 03:17:48;;;;;;;3.17;2.83;;;;;;;6.01;100.00;96267.09;4985319;28;20203;-60
2023/03/25 03:20:19;;;;;;;3.60;2.77;;;;;;;6.06;100.00;96273.47;4986165;28;20866;-61
2023/03/25 03:22:51;;;;;;;2.87;2.67;;;;;;;6.12;100.00;96274.56;4938664;28;20529;-59
2023/03/25 03:25:27;;;;;;;2.60;2.40;;;;;;;6.01;100.00;96280.22;4984124;28;20199;-61
2023/03/25 03:27:57;;;;;;;5.50;2.97;;;;;;;5.98;100.00;96280.56;4986014;28;20312;-60
2023/03/25 03:30:28;;;;;;;2.67;2.50;;;;;;;5.91;100.00;96273.38;4959490;28;20210;-60
2023/03/25 03:33:02;;;;;;;3.47;2.40;;;;;;;5.89;100.00;96282.47;4986418;28;20313;-60
2023/03/25 03:35:31;;;;;;;2.27;2.17;;;;;;;5.84;100.00;96277.72;4979871;28;20940;-60
2023/03/25 03:38:01;;;;;;;2.57;2.27;;;;;;;5.86;100.00;96285.41;4982167;28;20216;-61
2023/03/25 03:40:31;;;;;;;4.10;2.33;;;;;;;5.93;100.00;96279.28;4944119;28;20847;-60
2023/03/25 03:43:01;;;;;;;2.47;2.27;;;;;;;5.88;100.00;96270.31;4987092;28;20204;-60
2023/03/25 03:45:32;;;;;;;2.30;2.10;;;;;;;5.86;100.00;96280.16;4959482;28;20197;-62
2023/03/25 03:48:02;;;;;;;2.10;2.00;;;;;;;5.79;100.00;96278.22;4988279;28;20703;-61
2023/03/25 03:50:32;;;;;;;6.53;2.30;;;;;;;5.85;100.00;96278.53;4981342;28;20627;-62
2023/03/25 03:53:08;;;;;;;2.40;1.90;;;;;;;5.79;100.00;96294.00;4982311;28;21213;-62
2023/03/25 03:55:39;;;;;;;2.13;1.70;;;;;;;5.78;100.00;96291.56;4937145;28;20201;-58
2023/03/25 03:58:14;;;;;;;1.80;1.73;;;;;;;5.77;100.00;96292.56;4965000;28;20243;-62
2023/03/25 04:00:44;;;;;;;3.50;1.80;;;;;;;5.73;100.00;96293.91;4978277;28;20219;-61
2023/03/25 04:03:15;;;;;;;1.97;1.77;;;;;;;5.74;100.00;96290.28;4962642;28;20286;-60
2023/03/25 04:05:46;;;;;;;3.77;2.20;;;;;;;5.74;100.00;96293.72;4982984;28;20289;-60
2023/03/25 04:08:20;;;;;;;1.77;1.50;;;;;;;5.75;100.00;96305.88;4972460;28;20228;-61
2023/03/25 04:10:52;;;;;;;2.37;1.60;;;;;;;5.81;100.00;96309.63;4942275;28;20208;-60
2023/03/25 04:13:21;;;;;;;1.87;1.40;;;;;;;5.75;100.00;96313.75;4988020;28;20196;-61
2023/03/25 04:15:49;;;;;;;2.43;1.90;;;;;;;5.76;100.00;96312.75;4982025;28;20200;-61
2023/03/25 04:18:22;;;;;;;2.30;1.63;;;;;;;5.82;100.00;96313.88;4953597;28;20217;-61
2023/03/25 04:20:49;;;;;;;3.37;1.63;;;;;;;5.75;100.00;96310.31;4984772;28;21051;-61
2023/03/25 04:23:17;;;;;;;1.40;1.30;;;;;;;5.62;100.00;96306.44;4984253;28;20203;-60
2023/03/25 04:25:46;;;;;;;6.23;1.63;;;;;;;5.52;100.00;96303.22;4938796;28;20225;-61
2023/03/25 04:28:16;;;;;;;2.00;1.90;;;;;;;5.43;100.00;96299.03;4955415;28;20368;-60
2023/03/25 04:30:45;;;;;;;2.63;1.57;;;;;;;5.58;100.00;96291.22;4975702;28;20342;-60
2023/03/25 04:33:13;;;;;;;2.87;1.87;;;;;;;5.65;100.00;96287.69;4966336;28;20767;-66
2023/03/25 04:35:41;;;;;;;1.20;1.20;;;;;;;5.71;100.00;96295.91;4979471;28;20201;-66
2023/03/25 04:38:08;;;;;;;1.50;1.27;;;;;;;5.74;100.00;96283.19;4962631;28;20251;-65
2023/03/25 04:40:39;;;;;;;2.57;1.37;;;;;;;5.65;100.00;96279.00;4933331;28;20227;-65
2023/03/25 04:43:07;;;;;;;2.90;1.70;;;;;;;5.62;100.00;96284.63;4970246;28;20639;-65
2023/03/25 04:45:36;;;;;;;3.25;1.30;;;;;;;5.60;100.00;96278.72;4980174;28;20425;-64
2023/03/25 04:48:05;;;;;;;1.93;1.80;;;;;;;5.55;100.00;96281.84;4991619;28;20224;-69
2023/03/25 04:50:33;;;;;;;1.73;1.47;;;;;;;5.58;100.00;96288.59;4960141;28;20212;-66
2023/03/25 04:53:01;;;;;;;1.70;1.60;;;;;;;5.57;100.00;96281.69;4973717;28;21103;-62
2023/03/25 04:55:30;;;;;;;1.93;1.30;;;;;;;5.64;100.00;96285.25;4975693;28;20205;-63
2023/03/25 04:57:58;;;;;;;1.13;1.10;;;;;;;5.67;100.00;96291.97;4950360;28;20227;-63
2023/03/25 05:00:26;;;;;;;1.50;1.40;;;;;;;5.74;100.00;96282.41;4967103;28;20225;-63
2023/03/25 05:02:56;;;;;;;1.10;1.10;;;;;;;5.77;100.00;96277.59;4983037;28;20905;-64
2023/03/25 05:05:25;;;;;;;1.73;1.30;;;;;;;5.79;100.00;96278.22;4960668;28;20224;-64
2023/03/25 05:07:53;;;;;;;2.33;1.27;;;;;;;5.86;100.00;96290.66;4985358;28;20228;-63
2023/03/25 05:10:23;;;;;;;1.40;1.30;;;;;;;5.95;100.00;96289.63;4990028;28;21011;-63
2023/03/25 05:12:50;;;;;;;1.57;1.30;;;;;;;5.92;100.00;96287.34;4947574;28;20204;-63
2023/03/25 05:15:18;;;;;;;1.50;1.30;;;;;;;5.88;100.00;96284.25;4971750;28;20674;-63
2023/03/25 05:17:46;;;;;;;1.80;1.67;;;;;;;5.90;100.00;96289.34;4987094;28;20201;-63
2023/03/25 05:20:15;;;;;;;1.60;1.50;;;;;;;5.89;100.00;96293.78;4948883;28;20281;-63
2023/03/25 05:22:44;;;;;;;1.40;1.30;;;;;;;5.88;100.00;96289.50;4981577;28;20256;-63
2023/03/25 05:25:12;;;;;;;2.93;1.43;;;;;;;5.87;100.00;96287.88;4985450;28;20288;-64
2023/03/25 05:27:39;;;;;;;1.60;1.47;;;;;;;5.97;100.00;96287.66;4989361;28;20777;-63
2023/03/25 05:30:08;;;;;;;1.70;1.60;;;;;;;6.02;100.00;96287.97;4936145;28;20212;-63
2023/03/25 05:32:39;;;;;;;1.67;1.57;;;;;;;5.98;100.00;96297.16;4983646;28;20310;-63
2023/03/25 05:35:09;;;;;;;1.37;1.27;;;;;;;5.99;100.00;96330.34;4984550;28;20297;-62
2023/03/25 05:37:38;;;;;;;1.73;1.40;;;;;;;5.92;100.00;96322.34;4972637;28;20232;-63
2023/03/25 05:40:09;;;;;;;2.70;2.10;;;;;;;5.87;100.00;96326.47;4985296;28;20244;-63
2023/03/25 05:42:45;;;;;;;2.30;1.60;;;;;;;5.86;100.00;96325.69;4987022;28;20684;-64
2023/03/25 05:45:14;;;;;;;1.40;1.30;;;;;;;5.59;100.00;96335.69;4943759;28;20210;-62
2023/03/25 05:47:42;;;;;;;1.13;1.13;;;;;;;5.28;100.00;96333.06;4983452;28;20311;-65
2023/03/25 05:50:10;;;;;;;2.33;1.17;;;;;;;5.12;100.00;96352.34;4985169;28;20291;-66
2023/03/25 05:52:40;;;;;;;1.30;1.20;;;;;;;5.02;100.00;96355.16;4960552;28;20205;-64
2023/03/25 05:55:10;;;;;;;1.93;1.03;;;;;;;4.91;100.00;96378.16;4986642;28;20300;-66
2023/03/25 05:57:38;;;;;;;1.10;1.10;;;;;;;4.84;100.00;96365.88;4977647;28;20205;-65
2023/03/25 06:00:10;;;;;;;2.27;1.33;;;;;;;4.80;100.00;96365.41;4974863;28;20224;-67
2023/03/25 06:02:38;;;;;;;1.23;1.13;;;;;;;4.73;100.00;96367.88;4937484;28;21093;-67
2023/03/25 06:05:08;;;;;;;2.33;1.00;;;;;;;4.71;100.00;96375.09;4986252;28;20676;-66
2023/03/25 06:07:36;;;;;;;1.27;1.27;;;;;;;4.70;100.00;96381.34;4964223;28;21042;-64
2023/03/25 06:10:06;;;;;;;1.50;1.40;;;;;;;4.66;100.00;96385.28;4987166;28;20905;-67
2023/03/25 06:12:37;;;;;;;1.10;1.10;;;;;;;4.73;100.00;96388.03;4987113;28;21098;-65
2023/03/25 06:15:07;;;;;;;2.53;1.33;;;;;;;4.83;100.00;96380.00;4983542;28;20215;-65
2023/03/25 06:17:37;;;;;;;1.43;1.03;;;;;;;5.03;100.00;96376.00;4949025;28;20340;-66
2023/03/25 06:20:10;;;;;;;1.10;1.10;;;;;;;5.16;100.00;96374.66;4986062;28;21127;-64
2023/03/25 06:22:38;;;;;;;1.80;1.40;;;;;;;5.17;100.00;96387.63;4973455;28;20896;-67
2023/03/25 06:25:08;;;;;;;1.37;1.33;;;;;;;5.09;100.00;96389.44;4984591;28;20212;-65
2023/03/25 06:27:39;;;;;;;0.90;0.90;;;;;;;5.10;100.00;96394.53;4987580;28;20201;-66
2023/03/25 06:30:09;;;;;;;1.30;1.20;;;;;;;5.25;100.00;96392.00;4997687;28;21137;-64
2023/03/25 06:32:37;;;;;;;1.37;1.23;;;;;;;5.31;100.00;96411.53;4930762;28;20874;-63
2023/03/25 06:35:06;;;;;;;1.13;1.13;;;;;;;5.38;100.00;96415.13;4994240;28;20626;-66
2023/03/25 06:37:34;;;;;;;1.00;1.00;;;;;;;5.40;100.00;96418.38;4988368;28;20200;-64
2023/03/25 06:40:04;;;;;;;1.37;1.27;;;;;;;5.41;100.00;96419.22;4963084;28;20228;-65
2023/03/25 06:42:33;;;;;;;1.60;1.00;;;;;;;5.30;100.00;96426.50;4988090;28;20250;-65
2023/03/25 06:45:01;;;;;;;2.33;1.57;;;;;;;5.18;100.00;96420.78;4988488;28;20204;-64
2023/03/25 06:47:29;;;;;;;1.57;1.30;;;;;;;5.04;100.00;96424.06;4975940;28;20207;-64
2023/03/25 06:49:57;;;;;;;1.10;1.10;;;;;;;5.04;100.00;96426.69;4949619;28;20735;-64
2023/03/25 06:52:24;;;;;;;1.20;1.03;;;;;;;5.19;100.00;96435.53;4978905;28;20228;-64
2023/03/25 06:54:52;;;;;;;1.10;1.10;;;;;;;5.44;100.00;96451.22;4959102;28;20701;-64
2023/03/25 06:57:19;;;;;;;2.30;1.27;;;;;;;5.62;100.00;96431.78;4981762;28;20719;-64
2023/03/25 06:59:48;;;;;;;1.50;0.97;;;;;;;5.65;100.00;96424.34;4978809;28;20926;-63
2023/03/25 07:02:16;;;;;;;1.73;1.10;;;;;;;5.61;100.00;96430.94;4984855;28;20210;-63
2023/03/25 07:04:44;;;;;;;2.00;1.07;;;;;;;5.53;100.00;96427.56;4946611;28;20221;-63
2023/03/25 07:07:11;;;;;;;3.00;1.10;;;;;;;5.39;100.00;96419.38;4983596;28;20217;-61
2023/03/25 07:09:39;;;;;;;0.80;0.80;;;;;;;5.31;100.00;96416.78;4968117;28;20229;-63
2023/03/25 07:12:07;;;;;;;1.80;1.20;;;;;;;5.43;100.00;96419.88;4985384;28;20193;-61
2023/03/25 07:14:35;;;;;;;1.10;0.90;;;;;;;5.49;100.00;96409.50;4981694;28;20197;-62
2023/03/25 07:17:05;;;;;;;3.13;0.80;;;;;;;5.63;100.00;96396.63;4991200;28;20594;-61
2023/03/25 07:19:32;;;;;;;0.73;0.73;;;;;;;5.83;100.00;96394.38;4940471;28;20234;-64
2023/03/25 07:22:00;;;;;;;0.80;0.80;;;;;;;5.97;100.00;96400.72;4980700;28;20318;-63
2023/03/25 07:24:28;;;;;;;1.20;1.10;;;;;;;5.97;100.00;96400.72;4985294;28;20223;-64
2023/03/25 07:26:55;;;;;;;1.37;1.27;;;;;;;5.92;100.00;96395.97;4965602;28;20320;-64
2023/03/25 07:29:23;;;;;;;1.07;1.07;;;;;;;6.42;100.00;96395.63;4983658;28;20220;-63
2023/03/25 07:31:50;;;;;;;1.60;1.17;;;;;;;6.88;100.00;96386.03;4980706;28;20216;-64
2023/03/25 07:34:20;;;;;;;1.40;1.30;;;;;;;7.13;100.00;96381.31;4957044;28;21154;-64
2023/03/25 07:36:48;;;;;;;2.17;1.10;;;;;;;7.36;100.00;96388.28;4991236;28;20215;-64
2023/03/25 07:39:17;;;;;;;1.27;0.80;;;;;;;7.33;100.00;96381.59;4982766;28;20808;-63
2023/03/25 07:41:46;;;;;;;1.20;1.10;;;;;;;7.54;100.00;96385.28;4965693;28;21101;-64
2023/03/25 07:44:14;;;;;;;1.73;1.27;;;;;;;7.41;100.00;96378.03;4987786;28;20226;-63
2023/03/25 07:46:44;;;;;;;0.90;0.90;;;;;;;7.75;100.00;96381.88;4981999;28;20744;-61
2023/03/25 07:49:13;;;;;;;1.20;0.87;;;;;;;7.77;100.00;96376.41;4956194;28;20316;-63
2023/03/25 07:51:42;;;;;;;1.03;1.03;;;;;;;7.67;100.00;96376.72;4970540;28;20288;-63
2023/03/25 07:54:10;;;;;;;2.27;1.33;;;;;;;7.73;100.00;96364.59;4982983;28;20196;-64
2023/03/25 07:56:37;;;;;;;1.50;1.40;;;;;;;7.72;100.00;96369.06;4963114;28;21513;-63
2023/03/25 07:59:05;;;;;;;1.60;1.10;;;;;;;7.75;100.00;96366.03;4989528;28;20845;-63
2023/03/25 08:01:33;;;;;;;0.80;0.80;;;;;;;7.79;100.00;96369.13;4978817;28;20911;-63
2023/03/25 08:04:00;;;;;;;1.53;1.17;;;;;;;7.85;100.00;96375.50;4982775;28;20207;-62
2023/03/25 08:06:28;;;;;;;1.00;0.80;;;;;;;7.84;100.00;96363.31;4943706;28;20213;-64
2023/03/25 08:08:57;;;;;;;2.10;1.03;;;;;;;7.71;99.91;96372.69;4983170;28;20301;-64
2023/03/25 08:11:24;;;;;;;1.70;1.00;;;;;;;7.49;98.15;96367.41;4960546;28;20205;-62
2023/03/25 08:13:52;;;;;;;1.97;1.07;;;;;;;7.43;100.00;96370.78;4978550;28;20225;-63
2023/03/25 08:16:20;;;;;;;1.60;0.87;;;;;;;7.48;100.00;96378.94;4985767;28;20223;-65
2023/03/25 08:18:51;;;;;;;4.00;1.20;;;;;;;7.64;98.64;96363.91;4982907;28;20252;-60
2023/03/25 08:21:23;;;;;;;4.77;3.30;;;;;;;7.85;95.22;96364.94;4948715;28;20332;-64
2023/03/25 08:23:53;;;;;;;1.90;1.80;;;;;;;7.81;92.88;96370.59;4981300;28;20236;-64
2023/03/25 08:26:22;;;;;;;3.17;1.57;;;;;;;7.82;95.47;96364.31;4981233;28;20205;-64
2023/03/25 08:28:50;;;;;;;1.50;1.33;;;;;;;7.76;93.82;96372.94;4961722;28;20227;-62
2023/03/25 08:31:19;;;;;;;2.40;1.33;;;;;;;7.74;94.12;96369.69;4989068;28;20304;-64
2023/03/25 08:33:46;;;;;;;3.97;1.63;;;;;;;7.76;90.87;96374.78;4988462;28;20206;-65
2023/03/25 08:36:18;;;;;;;1.10;1.00;;;;;;;7.69;89.30;96379.97;4966157;28;20221;-65
2023/03/25 08:38:46;;;;;;;1.53;1.17;;;;;;;7.68;88.21;96373.91;4981605;28;20228;-65
2023/03/25 08:41:14;;;;;;;2.07;1.20;;;;;;;7.81;88.36;96381.16;4978022;28;20216;-66
2023/03/25 08:43:43;;;;;;;2.53;1.17;;;;;;;7.87;87.14;96366.38;4966854;28;21043;-65
2023/03/25 08:46:11;;;;;;;4.13;2.07;;;;;;;7.92;83.38;96376.38;4989132;28;20225;-66
2023/03/25 08:48:39;;;;;;;2.97;1.50;;;;;;;8.07;83.58;96371.84;4982249;28;20224;-65
2023/03/25 08:51:08;;;;;;;3.70;1.10;;;;;;;8.51;81.90;96372.69;4981963;28;20200;-63
2023/03/25 08:53:35;;;;;;;1.90;1.43;;;;;;;8.91;76.45;96366.91;4948098;28;20210;-64
2023/03/25 08:56:03;;;;;;;1.83;1.30;;;;;;;9.02;77.85;96376.09;4979951;28;20235;-64
2023/03/25 08:58:31;;;;;;;1.87;1.30;;;;;;;9.01;75.92;96366.53;4966501;28;21857;-65
2023/03/25 09:01:00;;;;;;;2.07;1.97;;;;;;;9.33;76.07;96352.88;4986014;28;20220;-65
2023/03/25 09:03:27;;;;;;;2.00;1.17;;;;;;;9.26;73.10;96345.72;4977902;28;20204;-63
2023/03/25 09:05:55;;;;;;;3.13;1.30;;;;;;;9.67;72.67;96362.56;4988699;28;20851;-65
2023/03/25 09:08:23;;;;;;;3.77;1.33;;;;;;;9.82;71.11;96356.31;4946529;28;20234;-64
2023/03/25 09:10:51;;;;;;;2.67;1.73;;;;;;;9.57;69.85;96346.28;4984406;28;20201;-64
2023/03/25 09:13:18;;;;;;;1.80;1.17;;;;;;;9.64;70.98;96352.41;4985319;28;20201;-65
2023/03/25 09:15:46;;;;;;;2.17;1.37;;;;;;;9.42;70.70;96349.06;4951697;28;20201;-64
2023/03/25 09:18:15;;;;;;;1.43;1.27;;;;;;;9.48;69.84;96336.88;4984032;28;20314;-64
2023/03/25 09:20:46;;;;;;;2.00;1.67;;;;;;;9.67;70.66;96333.47;4986585;28;20208;-63
2023/03/25 09:23:14;;;;;;;2.67;1.73;;;;;;;9.89;71.11;96336.00;4938744;28;20787;-66
2023/03/25 09:25:43;;;;;;;1.87;1.20;;;;;;;9.67;69.37;96345.91;4974853;28;20219;-64
2023/03/25 09:28:10;;;;;;;1.87;1.17;;;;;;;9.68;71.22;96343.03;4977234;28;20421;-64
2023/03/25 09:30:38;;;;;;;1.40;1.30;;;;;;;9.87;69.11;96351.25;4962041;28;20759;-64
2023/03/25 09:33:06;;;;;;;2.13;1.40;;;;;;;9.76;70.01;96350.00;4982845;28;20213;-65
2023/03/25 09:35:35;;;;;;;2.67;1.50;;;;;;;9.89;67.31;96333.34;4950636;28;20366;-64
2023/03/25 09:38:03;;;;;;;5.40;1.23;;;;;;;10.33;70.24;96327.69;4957696;28;20234;-66
2023/03/25 09:40:31;;;;;;;1.43;1.13;;;;;;;10.87;67.98;96333.78;4939671;28;20206;-63
2023/03/25 09:43:20;;;;;;;1.60;1.50;;;;;;;10.62;67.08;96331.78;4956099;28;20216;-62
2023/03/25 09:45:49;;;;;;;1.30;1.20;;;;;;;10.73;67.06;96330.34;4977900;28;20628;-62
2023/03/25 09:48:24;;;;;;;1.63;1.27;;;;;;;10.42;67.95;96329.97;4962331;28;20225;-63
2023/03/25 09:50:55;;;;;;;3.57;1.93;;;;;;;10.40;73.58;96345.22;4979648;28;20295;-63
2023/03/25 09:53:27;;;;;;;1.70;1.53;;;;;;;9.77;75.54;96332.28;4963076;28;20449;-63
2023/03/25 09:55:54;;;;;;;1.20;1.00;;;;;;;9.68;75.95;96326.38;4949229;28;20205;-63
2023/03/25 09:58:27;;;;;;;1.57;1.47;;;;;;;9.85;78.08;96326.81;4988844;28;20388;-63
2023/03/25 10:00:57;;;;;;;1.57;1.37;;;;;;;9.99;77.50;96327.63;4987955;28;20212;-62
2023/03/25 10:03:28;;;;;;;1.30;1.20;;;;;;;9.76;75.11;96322.72;4957817;28;20233;-64
2023/03/25 10:06:09;;;;;;;2.00;1.13;;;;;;;9.67;77.21;96330.84;4985289;28;20259;-61
2023/03/25 10:08:45;;;;;;;2.07;1.17;;;;;;;10.11;75.99;96322.56;4968159;28;20933;-62
2023/03/25 10:11:18;;;;;;;1.40;1.10;;;;;;;10.46;75.17;96318.97;4945401;28;21325;-62
2023/03/25 10:13:50;;;;;;;1.13;1.00;;;;;;;10.59;70.68;96316.31;4986214;28;20710;-62
2023/03/25 10:16:25;;;;;;;2.23;1.37;;;;;;;10.66;70.93;96308.34;4970551;28;20198;-61
2023/03/25 10:19:00;;;;;;;1.70;1.20;;;;;;;10.69;69.25;96310.59;4971329;28;20702;-63
2023/03/25 10:21:35;;;;;;;2.83;1.10;;;;;;;10.71;68.59;96297.94;4959989;28;21001;-62
2023/03/25 10:24:12;;;;;;;1.63;1.00;;;;;;;10.93;67.16;96293.22;4948296;28;20215;-63
2023/03/25 10:26:43;;;;;;;1.30;0.93;;;;;;;11.60;66.96;96286.03;4988634;28;20254;-63
2023/03/25 10:29:13;;;;;;;4.53;1.37;;;;;;;11.71;67.40;96294.09;4981193;28;20312;-61
2023/03/25 10:31:49;;;;;;;2.43;1.37;;;;;;;11.28;64.43;96307.97;4981816;28;20200;-62
2023/03/25 10:34:18;;;;;;;2.00;1.70;;;;;;;11.00;63.64;96307.25;4963162;28;20206;-62
2023/03/25 10:36:53;;;;;;;1.57;1.07;;;;;;;10.89;64.47;96296.47;4979665;28;20208;-63
2023/03/25 10:39:23;;;;;;;1.23;1.00;;;;;;;10.69;63.99;96292.84;4941829;28;20993;-64
2023/03/25 10:41:55;;;;;;;1.50;1.07;;;;;;;10.64;65.44;96282.06;4986633;28;20212;-63
2023/03/25 10:44:24;;;;;;;1.13;1.07;;;;;;;10.75;66.48;96277.13;4956591;28;20210;-64
2023/03/25 10:46:55;;;;;;;2.50;1.47;;;;;;;10.50;68.67;96286.56;4985090;28;20236;-63
2023/03/25 10:49:25;;;;;;;1.90;1.30;;;;;;;10.36;70.76;96284.91;4961449;28;20235;-63
2023/03/25 10:51:56;;;;;;;0.83;0.83;;;;;;;10.19;68.42;96279.22;4985723;28;20921;-62
2023/03/25 10:54:27;;;;;;;1.57;1.17;;;;;;;10.02;68.82;96286.75;4983372;28;20209;-62
2023/03/25 10:56:57;;;;;;;2.53;1.20;;;;;;;9.98;69.22;96292.44;4948211;28;20211;-62
2023/03/25 10:59:30;;;;;;;1.23;1.13;;;;;;;9.89;71.04;96298.13;4983481;28;20993;-62
2023/03/25 11:01:58;;;;;;;1.23;1.00;;;;;;;9.63;75.84;96297.88;4987368;28;20201;-65
2023/03/25 11:04:32;;;;;;;1.60;1.50;;;;;;;9.23;77.08;96287.97;4964498;28;20929;-64
2023/03/25 11:07:04;;;;;;;2.03;1.43;;;;;;;8.85;79.20;96293.69;4987797;28;20248;-64
2023/03/25 11:09:35;;;;;;;4.10;1.30;;;;;;;8.55;82.28;96296.56;4987273;28;20228;-64
2023/03/25 11:12:06;;;;;;;2.93;1.60;;;;;;;8.44;84.37;96303.16;4940645;28;20234;-64
2023/03/25 11:14:37;;;;;;;1.60;1.50;;;;;;;8.64;85.58;96303.31;4982958;28;20790;-64
2023/03/25 11:17:10;;;;;;;1.37;1.27;;;;;;;8.97;85.65;96291.31;4979288;28;20363;-64
2023/03/25 11:19:41;;;;;;;2.20;1.53;;;;;;;9.37;83.88;96278.25;4989810;28;20399;-64
2023/03/25 11:22:12;;;;;;;2.00;1.27;;;;;;;9.79;80.64;96262.28;4962153;28;20208;-63
2023/03/25 11:24:43;;;;;;;1.60;1.33;;;;;;;9.92;79.69;96258.03;4984089;28;20569;-63
2023/03/25 11:27:17;;;;;;;1.37;1.27;;;;;;;9.94;76.85;96259.47;4936645;28;20209;-63
2023/03/25 11:29:50;;;;;;;1.30;1.20;;;;;;;10.70;76.96;96259.22;4980740;28;20224;-62
2023/03/25 11:32:23;;;;;;;1.73;1.50;;;;;;;11.15;78.46;96250.50;4981068;28;20204;-63
2023/03/25 11:34:53;;;;;;;1.53;1.27;;;;;;;11.21;73.72;96246.22;4988757;28;20204;-62
2023/03/25 11:37:25;;;;;;;1.17;1.03;;;;;;;10.99;71.90;96239.38;4960497;28;20307;-65
2023/03/25 11:39:54;;;;;;;1.30;1.27;;;;;;;10.98;72.56;96237.75;4964135;28;20239;-64
2023/03/25 11:42:31;;;;;;;2.57;1.17;;;;;;;10.61;72.57;96258.63;4940495;28;22219;-62
2023/03/25 11:45:00;;;;;;;1.27;1.07;;;;;;;10.46;71.80;96258.84;4984375;28;20212;-62
2023/03/25 11:47:32;;;;;;;1.63;1.40;;;;;;;10.57;72.75;96260.88;4983576;28;20193;-62